createdAt,value
2022-08-25T00:00:21.157Z,14.60
2022-08-25T00:02:55.964Z,16.80
2022-08-25T00:05:29.145Z,14.23
2022-08-25T00:07:58.004Z,15.33
2022-08-25T00:10:29.192Z,15.37
2022-08-25T00:12:57.446Z,17.17
2022-08-25T00:15:26.468Z,14.20
2022-08-25T00:17:58.506Z,15.40
2022-08-25T00:20:28.120Z,13.03
2022-08-25T00:22:56.811Z,18.27
2022-08-25T00:25:25.288Z,15.87
2022-08-25T00:27:53.388Z,16.13
2022-08-25T00:30:21.936Z,16.33
2022-08-25T00:32:57.091Z,14.40
2022-08-25T00:35:28.170Z,15.83
2022-08-25T00:37:57.027Z,14.73
2022-08-25T00:40:28.943Z,18.47
2022-08-25T00:42:57.381Z,16.37
2022-08-25T00:45:26.429Z,15.43
2022-08-25T00:47:55.017Z,15.67
2022-08-25T00:50:31.800Z,16.40
2022-08-25T00:53:04.712Z,12.57
2022-08-25T00:55:39.180Z,12.37
2022-08-25T00:58:15.235Z,15.40
2022-08-25T01:00:47.344Z,12.97
2022-08-25T01:03:16.499Z,14.10
2022-08-25T01:05:47.795Z,16.87
2022-08-25T01:08:21.206Z,16.63
2022-08-25T01:10:51.719Z,10.53
2022-08-25T01:13:27.642Z,14.27
2022-08-25T01:15:58.985Z,17.27
2022-08-25T01:18:29.665Z,17.77
2022-08-25T01:21:01.175Z,15.20
2022-08-25T01:23:29.320Z,15.13
2022-08-25T01:26:05.921Z,18.17
2022-08-25T01:28:35.612Z,14.23
2022-08-25T01:31:05.046Z,16.63
2022-08-25T01:33:52.599Z,21.40
2022-08-25T01:36:23.298Z,13.77
2022-08-25T01:38:52.087Z,11.53
2022-08-25T01:41:32.554Z,15.40
2022-08-25T01:44:01.092Z,13.87
2022-08-25T01:46:29.622Z,14.60
2022-08-25T01:48:57.800Z,16.67
2022-08-25T01:51:34.613Z,13.77
2022-08-25T01:54:02.905Z,17.27
2022-08-25T01:56:31.427Z,15.00
2022-08-25T01:58:59.618Z,17.07
2022-08-25T02:01:28.438Z,17.30
2022-08-25T02:03:58.348Z,18.57
2022-08-25T02:06:33.200Z,15.73
2022-08-25T02:09:07.017Z,17.23
2022-08-25T02:11:37.402Z,18.47
2022-08-25T02:14:06.952Z,15.03
2022-08-25T02:16:39.475Z,22.20
2022-08-25T02:19:11.858Z,17.33
2022-08-25T02:21:41.440Z,16.23
2022-08-25T02:24:10.475Z,21.20
2022-08-25T02:26:38.978Z,18.47
2022-08-25T02:29:09.214Z,16.00
2022-08-25T02:31:38.269Z,15.13
2022-08-25T02:34:07.401Z,15.87
2022-08-25T02:36:36.053Z,16.37
2022-08-25T02:39:08.853Z,12.97
2022-08-25T02:41:38.924Z,14.43
2022-08-25T02:44:09.361Z,13.07
2022-08-25T02:46:39.105Z,15.17
2022-08-25T02:49:09.134Z,14.47
2022-08-25T02:51:38.001Z,16.07
2022-08-25T02:54:08.097Z,20.83
2022-08-25T02:56:36.400Z,17.10
2022-08-25T02:59:05.599Z,15.47
2022-08-25T03:01:34.352Z,16.73
2022-08-25T03:04:03.999Z,19.13
2022-08-25T03:06:32.476Z,17.07
2022-08-25T03:09:01.466Z,14.03
2022-08-25T03:11:31.474Z,13.33
2022-08-25T03:13:59.774Z,19.30
2022-08-25T03:16:28.308Z,18.07
2022-08-25T03:18:57.968Z,14.43
2022-08-25T03:21:26.213Z,16.30
2022-08-25T03:23:54.565Z,14.60
2022-08-25T03:26:41.051Z,18.40
2022-08-25T03:29:11.528Z,19.73
2022-08-25T03:31:40.157Z,17.30
2022-08-25T03:34:09.335Z,14.20
2022-08-25T03:36:38.144Z,22.13
2022-08-25T03:39:08.449Z,19.77
2022-08-25T03:41:37.065Z,25.10
2022-08-25T03:44:08.038Z,19.27
2022-08-25T03:46:42.317Z,17.13
2022-08-25T03:49:14.163Z,21.33
2022-08-25T03:51:49.676Z,23.90
2022-08-25T03:54:21.757Z,20.10
2022-08-25T03:56:50.040Z,16.63
2022-08-25T03:59:20.142Z,26.90
2022-08-25T04:01:54.726Z,20.40
2022-08-25T04:04:23.914Z,17.87
2022-08-25T04:06:52.954Z,19.83
2022-08-25T04:09:21.287Z,20.67
2022-08-25T04:11:53.177Z,26.03
2022-08-25T04:14:23.633Z,18.13
2022-08-25T04:16:54.463Z,20.50
2022-08-25T04:19:23.292Z,21.67
2022-08-25T04:21:56.601Z,25.27
2022-08-25T04:24:25.105Z,27.23
2022-08-25T04:26:53.895Z,26.80
2022-08-25T04:29:25.303Z,26.57
2022-08-25T04:31:56.420Z,31.33
2022-08-25T04:34:30.199Z,35.10
2022-08-25T04:37:01.640Z,35.97
2022-08-25T04:39:30.281Z,27.73
2022-08-25T04:42:00.431Z,27.13
2022-08-25T04:44:29.049Z,29.17
2022-08-25T04:46:59.117Z,28.03
2022-08-25T04:49:28.284Z,29.00
2022-08-25T04:51:57.514Z,30.80
2022-08-25T04:54:26.044Z,30.67
2022-08-25T04:56:58.753Z,27.73
2022-08-25T04:59:30.142Z,27.10
2022-08-25T05:02:03.297Z,30.87
2022-08-25T05:04:33.347Z,30.87
2022-08-25T05:07:02.138Z,30.80
2022-08-25T05:09:32.319Z,29.53
2022-08-25T05:12:02.249Z,32.47
2022-08-25T05:14:31.465Z,32.17
2022-08-25T05:17:01.763Z,32.50
2022-08-25T05:19:30.234Z,34.03
2022-08-25T05:21:58.539Z,28.33
2022-08-25T05:24:28.010Z,28.77
2022-08-25T05:26:57.448Z,26.90
2022-08-25T05:29:25.760Z,27.93
2022-08-25T05:31:55.305Z,29.43
2022-08-25T05:34:25.718Z,30.17
2022-08-25T05:36:54.561Z,30.57
2022-08-25T05:39:22.794Z,26.30
2022-08-25T05:41:52.050Z,28.17
2022-08-25T05:44:21.301Z,29.43
2022-08-25T05:46:51.350Z,29.23
2022-08-25T05:49:19.764Z,29.07
2022-08-25T05:51:49.477Z,25.47
2022-08-25T05:54:17.751Z,25.63
2022-08-25T05:56:46.482Z,37.57
2022-08-25T05:59:14.860Z,38.90
2022-08-25T06:02:00.532Z,31.17
2022-08-25T06:04:28.975Z,34.07
2022-08-25T06:06:58.406Z,31.40
2022-08-25T06:09:26.811Z,24.50
2022-08-25T06:11:55.673Z,28.40
2022-08-25T06:14:24.862Z,27.90
2022-08-25T06:16:53.565Z,28.53
2022-08-25T06:19:23.190Z,25.37
2022-08-25T06:21:56.270Z,21.83
2022-08-25T06:24:28.074Z,24.90
2022-08-25T06:26:56.801Z,22.53
2022-08-25T06:29:25.706Z,20.40
2022-08-25T06:31:53.888Z,20.17
2022-08-25T06:34:24.150Z,25.60
2022-08-25T06:36:53.261Z,22.70
2022-08-25T06:39:22.367Z,20.97
2022-08-25T06:41:54.975Z,19.17
2022-08-25T06:44:26.285Z,20.97
2022-08-25T06:46:54.956Z,20.03
2022-08-25T06:49:23.126Z,21.10
2022-08-25T06:51:51.695Z,20.63
2022-08-25T06:54:20.016Z,20.63
2022-08-25T06:56:49.632Z,24.87
2022-08-25T06:59:19.854Z,21.50
2022-08-25T07:01:49.622Z,23.73
2022-08-25T07:04:18.357Z,21.77
2022-08-25T07:06:46.890Z,24.60
2022-08-25T07:09:16.367Z,22.40
2022-08-25T07:11:46.163Z,20.30
2022-08-25T07:14:17.267Z,21.60
2022-08-25T07:16:50.297Z,23.37
2022-08-25T07:19:20.799Z,19.27
2022-08-25T07:21:54.320Z,20.57
2022-08-25T07:24:23.840Z,24.60
2022-08-25T07:26:52.376Z,21.37
2022-08-25T07:29:32.322Z,21.67
2022-08-25T07:32:03.154Z,23.37
2022-08-25T07:34:52.143Z,21.97
2022-08-25T07:40:14.656Z,20.27
2022-08-25T07:42:43.208Z,18.77
2022-08-25T07:45:13.201Z,18.60
2022-08-25T07:47:42.691Z,20.10
2022-08-25T07:50:13.645Z,18.03
2022-08-25T07:52:42.892Z,17.83
2022-08-25T07:55:11.953Z,18.50
2022-08-25T07:57:41.316Z,19.43
2022-08-25T08:00:11.487Z,23.87
2022-08-25T08:02:39.930Z,19.17
2022-08-25T08:05:12.078Z,17.90
2022-08-25T08:07:43.545Z,19.03
2022-08-25T08:13:07.237Z,17.53
2022-08-25T08:15:35.996Z,20.47
2022-08-25T08:18:07.204Z,22.63
2022-08-25T08:20:42.400Z,18.57
2022-08-25T08:23:11.552Z,18.60
2022-08-25T08:25:40.127Z,14.73
2022-08-25T08:28:08.659Z,15.97
2022-08-25T08:30:39.214Z,15.93
2022-08-25T08:33:11.242Z,17.10
2022-08-25T08:35:42.607Z,14.07
2022-08-25T08:38:17.193Z,16.83
2022-08-25T08:41:24.396Z,13.60
2022-08-25T08:44:03.141Z,12.57
2022-08-25T08:46:47.158Z,15.33
2022-08-25T08:49:28.924Z,14.47
2022-08-25T08:52:04.333Z,17.37
2022-08-25T08:54:38.990Z,19.47
2022-08-25T08:57:16.655Z,16.03
2022-08-25T08:59:54.358Z,15.20
2022-08-25T09:02:39.520Z,11.93
2022-08-25T09:05:24.260Z,11.63
2022-08-25T09:07:58.791Z,10.63
2022-08-25T09:10:41.303Z,14.50
2022-08-25T09:13:26.311Z,14.43
2022-08-25T09:16:33.783Z,13.27
2022-08-25T09:19:23.728Z,11.63
2022-08-25T09:22:03.823Z,11.20
2022-08-25T09:25:08.910Z,12.33
2022-08-25T09:27:48.363Z,14.87
2022-08-25T09:30:19.657Z,13.57
2022-08-25T09:32:53.609Z,14.23
2022-08-25T09:35:26.667Z,14.27
2022-08-25T09:38:00.889Z,16.30
2022-08-25T09:40:34.854Z,19.77
2022-08-25T09:43:10.343Z,13.60
2022-08-25T09:45:43.541Z,17.70
2022-08-25T09:48:28.450Z,16.60
2022-08-25T09:51:03.421Z,16.03
2022-08-25T09:53:34.753Z,13.70
2022-08-25T09:56:08.069Z,11.97
2022-08-25T09:58:36.547Z,13.13
2022-08-25T10:01:15.710Z,12.87
2022-08-25T10:04:04.725Z,14.47
2022-08-25T10:06:43.690Z,10.67
2022-08-25T10:09:27.025Z,14.00
2022-08-25T10:12:01.055Z,12.20
2022-08-25T10:14:44.618Z,12.93
2022-08-25T10:17:24.664Z,15.13
2022-08-25T10:20:17.140Z,19.97
2022-08-25T10:22:48.295Z,13.47
2022-08-25T10:25:30.875Z,13.27
2022-08-25T10:28:16.007Z,11.00
2022-08-25T10:31:04.784Z,12.57
2022-08-25T10:33:57.583Z,13.13
2022-08-25T10:36:41.494Z,12.27
2022-08-25T10:39:41.323Z,15.57
2022-08-25T10:42:34.718Z,19.20
2022-08-25T10:45:39.105Z,15.73
2022-08-25T10:48:44.154Z,11.97
2022-08-25T10:51:47.824Z,20.73
2022-08-25T10:54:42.713Z,25.37
2022-08-25T10:57:25.983Z,18.20
2022-08-25T11:00:10.164Z,12.93
2022-08-25T11:03:14.762Z,13.03
2022-08-25T11:05:47.914Z,16.23
2022-08-25T11:08:26.224Z,13.73
2022-08-25T11:11:00.886Z,14.57
2022-08-25T11:13:44.315Z,12.83
2022-08-25T11:16:21.108Z,13.07
2022-08-25T11:19:05.606Z,12.73
2022-08-25T11:21:48.814Z,12.80
2022-08-25T11:24:41.932Z,13.93
2022-08-25T11:27:19.453Z,13.33
2022-08-25T11:30:03.325Z,15.20
2022-08-25T11:32:35.642Z,14.70
2022-08-25T11:35:12.212Z,10.07
2022-08-25T11:38:01.647Z,12.87
2022-08-25T11:41:11.063Z,14.87
2022-08-25T11:44:04.814Z,18.70
2022-08-25T11:46:57.930Z,17.33
2022-08-25T11:49:51.684Z,14.70
2022-08-25T11:52:53.966Z,19.70
2022-08-25T11:55:30.655Z,17.83
2022-08-25T11:58:35.261Z,19.20
2022-08-25T12:01:07.111Z,14.87
2022-08-25T12:04:14.829Z,18.13
2022-08-25T12:07:23.464Z,17.93
2022-08-25T12:10:18.563Z,17.93
2022-08-25T12:13:25.636Z,21.93
2022-08-25T12:16:01.598Z,18.10
2022-08-25T12:18:45.734Z,17.83
2022-08-25T12:21:33.014Z,15.87
2022-08-25T12:24:18.029Z,16.10
2022-08-25T12:27:06.499Z,18.70
2022-08-25T12:29:46.132Z,15.77
2022-08-25T12:32:39.491Z,20.13
2022-08-25T12:35:29.909Z,19.40
2022-08-25T12:38:08.943Z,15.13
2022-08-25T12:40:54.254Z,18.63
2022-08-25T12:43:33.331Z,19.50
2022-08-25T12:46:38.239Z,18.50
2022-08-25T12:49:30.621Z,14.88
2022-08-25T12:52:05.953Z,12.73
2022-08-25T12:54:49.081Z,16.58
2022-08-25T12:57:41.025Z,16.50
2022-08-25T13:00:22.348Z,17.58
2022-08-25T13:03:31.933Z,16.95
2022-08-25T13:06:26.274Z,14.77
2022-08-25T13:09:50.361Z,16.95
2022-08-25T13:12:25.243Z,18.40
2022-08-25T13:14:57.005Z,17.30
2022-08-25T13:17:35.728Z,15.18
2022-08-25T13:20:16.334Z,15.50
2022-08-25T13:22:48.915Z,16.38
2022-08-25T13:25:23.027Z,14.90
2022-08-25T13:28:06.168Z,7.95
2022-08-25T13:30:37.261Z,14.45
2022-08-25T13:33:21.962Z,13.70
2022-08-25T13:36:14.138Z,13.85
2022-08-25T13:38:45.763Z,11.00
2022-08-25T13:41:22.375Z,14.43
2022-08-25T13:44:00.874Z,14.90
2022-08-25T13:46:31.709Z,13.85
2022-08-25T13:49:08.827Z,14.02
2022-08-25T13:51:39.093Z,12.65
2022-08-25T13:54:10.519Z,11.68
2022-08-25T13:56:43.008Z,15.48
2022-08-25T13:59:25.858Z,16.25
2022-08-25T14:01:56.376Z,12.50
2022-08-25T14:04:32.506Z,12.23
2022-08-25T14:07:19.291Z,11.10
2022-08-25T14:09:53.594Z,13.48
2022-08-25T14:12:33.068Z,14.20
2022-08-25T14:15:08.404Z,14.68
2022-08-25T14:17:40.561Z,8.70
2022-08-25T14:20:22.320Z,10.77
2022-08-25T14:22:55.656Z,9.98
2022-08-25T14:25:26.726Z,9.98
2022-08-25T14:28:09.121Z,13.10
2022-08-25T14:30:47.282Z,8.73
2022-08-25T14:33:18.457Z,7.07
2022-08-25T14:35:53.781Z,15.00
2022-08-25T14:38:23.802Z,11.00
2022-08-25T14:40:52.280Z,8.48
2022-08-25T14:43:20.893Z,10.80
2022-08-25T14:45:53.589Z,9.75
2022-08-25T14:48:30.470Z,10.80
2022-08-25T14:51:01.649Z,9.48
2022-08-25T14:53:30.375Z,15.30
2022-08-25T14:55:59.437Z,11.15
2022-08-25T14:58:28.028Z,8.15
2022-08-25T15:01:04.313Z,9.25
2022-08-25T15:03:37.653Z,12.70
2022-08-25T15:06:08.454Z,11.13
2022-08-25T15:08:57.581Z,7.07
2022-08-25T15:11:29.220Z,7.03
2022-08-25T15:13:58.323Z,12.13
2022-08-25T15:16:35.036Z,8.70
2022-08-25T15:19:07.145Z,8.35
2022-08-25T15:21:39.581Z,9.00
2022-08-25T15:24:10.327Z,9.55
2022-08-25T15:26:45.035Z,8.05
2022-08-25T15:29:14.412Z,15.35
2022-08-25T15:31:43.978Z,14.45
2022-08-25T15:34:13.929Z,11.88
2022-08-25T15:36:44.132Z,7.05
2022-08-25T15:39:12.439Z,9.18
2022-08-25T15:41:42.617Z,14.02
2022-08-25T15:44:11.514Z,12.50
2022-08-25T15:46:47.035Z,14.27
2022-08-25T15:49:20.301Z,11.63
2022-08-25T15:51:54.549Z,10.98
2022-08-25T15:54:26.791Z,7.93
2022-08-25T15:56:56.728Z,12.55
2022-08-25T15:59:26.204Z,11.70
2022-08-25T16:01:56.031Z,13.43
2022-08-25T16:04:29.213Z,12.70
2022-08-25T16:06:59.013Z,10.25
2022-08-25T16:09:27.548Z,10.18
2022-08-25T16:11:58.971Z,13.63
2022-08-25T16:14:30.867Z,10.70
2022-08-25T16:16:59.804Z,12.07
2022-08-25T16:19:28.565Z,12.88
2022-08-25T16:21:59.969Z,13.55
2022-08-25T16:24:28.446Z,10.18
2022-08-25T16:27:11.175Z,11.90
2022-08-25T16:29:43.725Z,13.13
2022-08-25T16:32:14.482Z,16.70
2022-08-25T16:34:44.269Z,13.33
2022-08-25T16:37:14.275Z,12.77
2022-08-25T16:39:45.745Z,11.53
2022-08-25T16:42:14.810Z,20.00
2022-08-25T16:44:43.150Z,17.07
2022-08-25T16:47:13.973Z,18.30
2022-08-25T16:49:43.451Z,19.07
2022-08-25T16:52:30.316Z,15.83
2022-08-25T16:55:15.034Z,14.77
2022-08-25T16:57:47.555Z,13.40
2022-08-25T17:00:19.507Z,21.73
2022-08-25T17:02:48.731Z,16.00
2022-08-25T17:05:16.989Z,11.30
2022-08-25T17:08:09.511Z,11.80
2022-08-25T17:10:42.630Z,21.13
2022-08-25T17:13:12.778Z,16.10
2022-08-25T17:15:43.176Z,18.30
2022-08-25T17:18:12.793Z,14.43
2022-08-25T17:20:41.105Z,20.57
2022-08-25T17:23:12.358Z,15.87
2022-08-25T17:25:42.915Z,19.10
2022-08-25T17:28:12.775Z,24.97
2022-08-25T17:30:43.453Z,20.83
2022-08-25T17:33:12.085Z,12.53
2022-08-25T17:35:42.426Z,18.90
2022-08-25T17:38:12.776Z,15.70
2022-08-25T17:40:41.573Z,16.87
2022-08-25T17:43:10.192Z,17.30
2022-08-25T17:45:39.106Z,13.93
2022-08-25T17:48:08.758Z,12.67
2022-08-25T17:50:38.160Z,14.47
2022-08-25T17:53:07.751Z,13.43
2022-08-25T17:55:42.284Z,16.30
2022-08-25T17:58:13.684Z,18.70
2022-08-25T18:00:45.525Z,19.57
2022-08-25T18:03:13.811Z,16.30
2022-08-25T18:05:43.979Z,11.13
2022-08-25T18:08:14.504Z,16.47
2022-08-25T18:10:44.213Z,16.33
2022-08-25T18:13:12.661Z,16.47
2022-08-25T18:15:42.350Z,12.90
2022-08-25T18:18:12.539Z,14.80
2022-08-25T18:20:41.342Z,15.73
2022-08-25T18:23:11.814Z,14.53
2022-08-25T18:25:41.808Z,13.93
2022-08-25T18:28:12.678Z,14.87
2022-08-25T18:30:41.038Z,14.53
2022-08-25T18:33:09.724Z,12.87
2022-08-25T18:35:40.910Z,16.63
2022-08-25T18:38:27.479Z,15.13
2022-08-25T18:40:58.050Z,14.00
2022-08-25T18:43:31.944Z,16.67
2022-08-25T18:46:04.713Z,13.50
2022-08-25T18:48:34.606Z,13.27
2022-08-25T18:51:03.015Z,9.87
2022-08-25T18:53:37.410Z,13.53
2022-08-25T18:56:20.404Z,16.67
2022-08-25T18:58:50.825Z,12.77
2022-08-25T19:01:20.569Z,16.87
2022-08-25T19:03:50.494Z,17.97
2022-08-25T19:06:20.765Z,16.07
2022-08-25T19:08:49.724Z,19.40
2022-08-25T19:11:22.246Z,13.00
2022-08-25T19:13:52.653Z,17.37
2022-08-25T19:16:34.627Z,14.10
2022-08-25T19:19:06.453Z,18.17
2022-08-25T19:21:35.142Z,17.77
2022-08-25T19:24:03.902Z,20.30
2022-08-25T19:26:34.391Z,10.13
2022-08-25T19:29:05.157Z,12.93
2022-08-25T19:31:39.339Z,13.10
2022-08-25T19:34:12.128Z,19.00
2022-08-25T19:36:41.418Z,17.53
2022-08-25T19:39:13.390Z,12.83
2022-08-25T19:41:44.006Z,16.93
2022-08-25T19:44:14.529Z,12.10
2022-08-25T19:46:46.652Z,21.93
2022-08-25T19:49:18.575Z,15.60
2022-08-25T19:51:51.348Z,13.70
2022-08-25T19:54:26.274Z,15.57
2022-08-25T19:56:55.671Z,16.83
2022-08-25T19:59:34.251Z,19.37
2022-08-25T20:02:15.893Z,13.40
2022-08-25T20:04:49.640Z,16.10
2022-08-25T20:07:21.481Z,17.27
2022-08-25T20:09:53.598Z,14.80
2022-08-25T20:12:23.602Z,10.43
2022-08-25T20:14:54.508Z,17.77
2022-08-25T20:17:26.251Z,18.30
2022-08-25T20:19:59.979Z,10.20
2022-08-25T20:22:32.293Z,13.47
2022-08-25T20:25:13.234Z,15.30
2022-08-25T20:27:45.049Z,12.93
2022-08-25T20:30:18.668Z,21.60
2022-08-25T20:32:47.201Z,13.57
2022-08-25T20:35:16.953Z,14.83
2022-08-25T20:37:48.732Z,15.50
2022-08-25T20:40:26.206Z,13.07
2022-08-25T20:42:54.845Z,15.70
2022-08-25T20:45:24.786Z,16.83
2022-08-25T20:47:52.984Z,13.20
2022-08-25T20:50:22.950Z,15.20
2022-08-25T20:52:52.054Z,14.03
2022-08-25T20:55:21.725Z,15.27
2022-08-25T20:57:50.392Z,15.63
2022-08-25T21:00:24.679Z,12.50
2022-08-25T21:02:54.985Z,17.47
2022-08-25T21:05:23.359Z,15.17
2022-08-25T21:07:51.838Z,12.83
2022-08-25T21:10:20.257Z,14.80
2022-08-25T21:12:49.429Z,11.50
2022-08-25T21:15:21.916Z,16.90
2022-08-25T21:17:53.175Z,17.03
2022-08-25T21:20:26.246Z,17.47
2022-08-25T21:22:55.336Z,10.90
2022-08-25T21:25:25.002Z,19.30
2022-08-25T21:27:53.160Z,14.80
2022-08-25T21:30:21.551Z,13.47
2022-08-25T21:32:53.092Z,15.30
2022-08-25T21:35:26.749Z,13.63
2022-08-25T21:37:54.881Z,18.47
2022-08-25T21:40:24.026Z,15.10
2022-08-25T21:42:54.161Z,15.23
2022-08-25T21:45:22.567Z,11.93
2022-08-25T21:47:51.944Z,14.87
2022-08-25T21:50:23.197Z,18.60
2022-08-25T21:52:54.466Z,18.67
2022-08-25T21:55:23.558Z,18.13
2022-08-25T21:57:52.577Z,15.43
2022-08-25T22:00:22.858Z,12.43
2022-08-25T22:02:51.234Z,10.10
2022-08-25T22:05:19.651Z,13.80
2022-08-25T22:07:49.623Z,11.50
2022-08-25T22:10:18.228Z,13.13
2022-08-25T22:12:47.648Z,14.67
2022-08-25T22:15:19.959Z,12.20
2022-08-25T22:17:48.828Z,12.40
2022-08-25T22:20:19.599Z,12.07
2022-08-25T22:22:49.790Z,11.00
2022-08-25T22:25:18.293Z,10.83
2022-08-25T22:27:47.848Z,13.73
2022-08-25T22:30:25.111Z,17.07
2022-08-25T22:32:56.448Z,14.27
2022-08-25T22:35:24.560Z,19.83
2022-08-25T22:37:54.068Z,19.97
2022-08-25T22:40:22.253Z,9.33
2022-08-25T22:42:51.397Z,15.27
2022-08-25T22:45:20.250Z,17.43
2022-08-25T22:47:48.473Z,15.33
2022-08-25T22:50:17.427Z,15.90
2022-08-25T22:52:47.667Z,13.10
2022-08-25T22:55:17.956Z,13.63
2022-08-25T22:57:50.298Z,17.53
2022-08-25T23:00:23.441Z,9.83
2022-08-25T23:02:53.424Z,12.23
2022-08-25T23:05:22.103Z,10.80
2022-08-25T23:07:50.924Z,14.63
2022-08-25T23:10:22.667Z,11.37
2022-08-25T23:12:50.898Z,13.87
2022-08-25T23:15:19.175Z,13.23
2022-08-25T23:17:47.263Z,13.43
2022-08-25T23:20:33.855Z,9.57
2022-08-25T23:23:01.985Z,14.20
2022-08-25T23:25:31.409Z,15.00
2022-08-25T23:27:59.601Z,12.20
2022-08-25T23:30:28.054Z,14.10
2022-08-25T23:32:58.715Z,12.97
2022-08-25T23:35:26.855Z,13.13
2022-08-25T23:37:58.685Z,16.37
2022-08-25T23:40:27.643Z,14.60
2022-08-25T23:42:57.131Z,13.37
2022-08-25T23:45:25.358Z,15.77
2022-08-25T23:47:53.988Z,12.63
2022-08-25T23:50:22.289Z,14.40
2022-08-25T23:52:50.582Z,13.87
2022-08-25T23:55:19.188Z,12.33
2022-08-25T23:57:51.490Z,14.13
